RAID BELE STT- 15 Km le 10/03/2019

Recherche par Dossard : par Nom : par Club :

Place Dossard Nom Prenom Cat. Pl. Cat. Temps Club Sexe
1 698 CAPITAINE Patrice V2 1 01:31:41 SAMARITAINE TEAM TRAIL M
2 619 OLYMPA David V1 1 01:31:41 LES BAROUDEURS MARTINIQUE M
3 821 HILDERALD Isnard V2 2 01:32:53 SAMARITAINE TEAM TRAIL M
4 760 HERAULT Vincent SE 1 01:33:53 M
5 744 FOURMONT Jb SE 2 01:35:46 M
6 738 BERNARD Patrick SE 3 01:35:53 CSLG TRAIL TRINITÉ M
7 640 AUSTER Xavier V1 2 01:41:24 LES BAROUDEURS MARTINIQUE M
8 708 HILDERALD Émile V2 3 01:41:52 STT M
9 768 CEPISUL Dez V2 4 01:45:08 M
10 711 PASSONI Sebastien SE 4 01:45:12 KAWANN TRIATHLON CLUB M
11 617 SAUVÉE Lounčs SE 5 01:47:00 M
12 618 NAZAROV Boris SE 6 01:47:48 M
13 770 MELLOT Marc V2 5 01:48:47 SARRAUT DECHENE M
14 800 ROTIN Youry SE 7 01:52:09 PARCOURS DU COEUR M
15 734 FORTUNE Isaac SE 8 01:52:37 TIGER TEAM 972 M
16 742 CACLIN Nicolas SE 9 01:53:03 GOLDEN STAR M
17 784 FLOBINUS HENRIUS Rodolphe V2 6 01:54:44 M
18 653 GERMANY Florian CA 1 01:54:47 LES BAROUDEURS MARTINIQUE M
19 791 IGLESIAS Teddy SE 10 01:54:52 TIGER TEAM 972 M
20 733 LUCHEL Jean Sébastien SE 11 01:57:45 RÉVEIL DE LA COTE CARAIBE M
21 779 MURAT Alex V3 1 01:58:46 AMCF M
22 676 DOUVILLE Kévin JU 1 01:59:32 LES BAROUDEURS M
23 805 LAHELY Mathieu V1 3 02:00:31 FJT CYCAS M
24 718 NAUD Stephane SE 12 02:00:56 GOLDEN STAR M
25 794 ISNARD Jordane SE 13 02:02:03 M
26 654 AGNOLY Francois V2 7 02:02:45 MORNE CARETTE M
27 657 DA SILVA Daniel V1 4 02:03:01 33°RIMA M
28 700 DOYEN Thierry Roger V1 5 02:03:29 LES BAROUDEURS MARTINIQUE M
29 602 MARRAUD DES GROTTES Fabrice V1 6 02:04:03 AIGLON DU LAMENTIN M
30 683 HONTCHARENKO Gregory V1 7 02:04:18 M
31 747 SAINT LOUIS Gilbert V2 8 02:06:01 M
32 740 PAOLA Valery V1 8 02:09:54 M
33 638 FERGON Pierre SE 14 02:10:53 M
34 741 DOMERGUE Guillaume SE 15 02:11:19 M
35 790 LEDUC Fred SE 16 02:11:49 M
36 761 RIPAUD Lolita SE 1 02:13:27 F
37 713 ROMER Louisiane V2 1 02:16:22 CLUB FRANCISCAIN F
38 715 CORLET Guy Georges V2 9 02:16:23 CLUB FRANCISCAIN M
39 691 DE LA FUENTE Julien V1 9 02:16:28 CLUB MANIKOU M
40 664 LETCHIMY Anthony SE 17 02:17:14 NEW GYM M
41 748 GRONDIN Jean François V1 10 02:18:24 TCHIMBÉ RAID M
42 782 LANISTA Julien SE 18 02:18:57 M
43 724 THIMON Ely V2 10 02:20:36 M
44 682 AMBROISINE Jean Loic V1 11 02:20:36 M
45 771 BELLANCE Hugues V1 12 02:20:58 M
46 763 MONTLOUIS FELICITE Jules V2 11 02:21:16 M
47 803 DELPHIN Thierry V2 12 02:21:34 FJT CYCAS M
48 749 ROY CAMILLE Henry Michel V1 13 02:22:13 M
49 671 AUBERGER Anne SE 2 02:23:54 MANIKOU F
50 608 CIDALISE MONTAISE Franck Olivier V1 14 02:24:03 TCHIMBÉ RAID M
51 743 BRIEU Julien V1 15 02:24:12 M
52 759 MACARONUS Rony V1 16 02:24:22 M
53 635 MARCENY Frédéric V1 17 02:24:48 M
54 750 SAGE Rémi V1 18 02:25:04 AIGLON DU LAMENTIN M
55 661 RIAM Alex SE 19 02:26:06 M
56 735 SAINTE ROSE ROSEMOND Pierre SE 20 02:26:51 VAUCLIN ATHLETIC CLUB M
57 603 SHUM KUEN Frederic SE 21 02:26:55 M
58 612 VINOT Juliette SE 3 02:27:17 F
59 804 VENGETO Bernard V3 2 02:28:20 FJT CYCAS M
60 799 FOLLIET Elsa SE 4 02:29:05 SQUALE CLUB F
61 615 LAGUERRE Herve V2 13 02:30:20 LES BAROUDEURS M
62 775 LACLEF Olivier V1 19 02:30:20 M
63 810 MONTABORD Christian V1 20 02:31:12 M
64 672 GROS DESORMEAUX MORJON Sandrine V1 1 02:31:13 GOLDEN STAR F
65 783 DOMERGUE Vincent SE 22 02:33:34 M
66 678 DUCROT Isabelle V2 2 02:34:31 F
67 693 FERNANDEZ Karine V1 2 02:34:31 F
68 787 DAKDAKI Nordine SE 23 02:34:40 CSLG/RUN 972 M
69 745 DOREE David V2 14 02:34:40 LES SCOLOPENDRES 972 M
70 633 AGRICOLE Grégory SE 24 02:34:55 M
71 767 JEAN GILLES Celine V1 3 02:35:32 GOLDEN STAR F
72 796 MININ Felix V2 15 02:36:31 M
73 712 ROUVIER Virginie V2 3 02:36:45 F
74 798 CHARPENTIER TITI Louis V3 3 02:36:50 MAIRIE SPORTIVE M
75 642 GIACOMETTI Jacques V3 4 02:37:35 MANIKOU M
76 814 JANVIER Roger V3 5 02:38:11 M
77 641 GIBERNÉ Denis V2 16 02:38:22 M
78 613 VAUBERT Bastian SE 25 02:38:32 M
79 705 DALAIZE Miguel V1 21 02:38:34 SAMARITAINE TEAM TRAIL M
80 773 ALCINDOR Frantz V2 17 02:38:38 M
81 606 TRANCART Luc SE 26 02:38:52 M
82 605 BEAUDOUIN Florian SE 27 02:38:55 M
83 625 PHILEMOND MONTOUT Sammy SE 28 02:39:18 M
84 689 FAVREAU Logan SE 29 02:39:35 DIAMANT FIT CLUB M
85 643 STOCKLI Julien V1 22 02:39:52 M
86 793 AGOT Monel SE 30 02:40:47 M
87 655 VENNAT Cédric SE 31 02:41:22 M
88 692 CLAROUS Thomas SE 32 02:41:58 M
89 660 PAMAROT Silvere SE 33 02:41:59 M
90 746 ARNAUD Mathieu SE 34 02:42:59 M
91 650 JOCK Laurent V1 23 02:43:03 M
92 719 MALGOGNE Romain SE 35 02:45:05 M
93 788 VIGNE Wilem SE 36 02:46:10 M
94 797 MODETIN Melissa SE 5 02:46:13 F
95 697 LEMY Fontenoy V4 1 02:48:06 SAMARITAINE TEAM TRAIL M
96 707 DURNBERGER Fabrice SE 37 02:49:21 M
97 706 DURNBERGER Stephanie SE 6 02:49:21 F
98 652 GUSTO Philippe V2 18 02:50:18 LES BAROUDEURS M
99 626 KOWALSKI Dominique V2 19 02:50:20 PASS RUNNING M
100 688 PIGET Philippe V3 6 02:50:47 AMCF M
101 703 DELAGE Sophie V2 4 02:51:13 CGOSH F
102 646 MARCOMBES Anne Lise SE 7 02:51:30 F
103 694 TAUZIA Muriel V2 5 02:51:48 TCHIMBE RAID ASRFO972 F
104 627 GUILLOU Nicolas SE 38 02:52:12 M
105 681 FONTAINE Catherine V1 4 02:52:38 F
106 639 MASSON Delphine V1 5 02:52:38 F
107 781 PHEBIDIAS Tania V2 6 02:53:01 AMCF F
108 630 VICENTE Marie SE 8 02:53:49 F
109 659 BEURDELEY David V1 24 02:54:09 ATIPA 972 M
110 808 PELTI Valérie V1 6 02:54:23 TCHIMBE RAID F
111 684 SIMON Marjorie SE 9 02:54:44 F
112 819 SIBADO Albert V2 20 02:54:47 TCHIMBE RAID M
113 766 VANITOU Patrick V2 21 02:56:16 M
114 649 COLOTROC Jean Philippe V2 22 02:56:26 CLUB MANIKOU M
115 716 JACOB Jean Christophe V3 7 02:57:07 LES BAROUDEURS M
116 669 JUFRE Jean Louis V1 25 02:57:34 M
117 696 BLAISON Lionel V1 26 02:57:35 M
118 817 EUGENIE Claire V2 7 02:57:53 AIGLON DU LAMENTIN F
119 674 CORIDON Hervé V1 27 02:57:54 CLUB MANIKOU M
120 601 SAINTE CATHERINE Albert V3 8 02:58:20 M
121 624 BAZIN Sophie V1 7 02:58:42 LES BAROUDEURS F
122 737 QUIATOL Sonia V1 8 02:59:16 AMCF F
123 632 TOTO Fernand V3 9 02:59:53 M
124 720 PLATEL Marjorie SE 10 03:00:18 F
125 729 SUAU Serge V2 23 03:00:28 M
126 636 GEOFFRAY Elise SE 11 03:01:02 GOLDEN STAR F
127 811 PAVADE Nathalie V1 9 03:01:16 F
128 736 MELISSE Danielle V1 10 03:01:19 TCHIMBE RAID F
129 778 DELARUE Albane SE 12 03:01:43 F
130 686 GUILLOUX Diane SE 13 03:02:52 F
131 731 ALIBO JEAN LOUIS Chantal V2 8 03:03:12 F
132 726 JULIUS Karine SE 14 03:03:18 MANIKOU F
133 663 DARIBO Marie Olga V2 9 03:03:52 CLUB MANIKOU F
134 623 JACOBIERE Henri V3 10 03:03:52 CLUB TCHIMBÉ RAID M
135 765 NIVORE Jonathan SE 39 03:04:05 M
136 815 CLEMENT Nathalie V2 10 03:04:25 F
137 701 HODE Coralie SE 15 03:05:09 F
138 764 NABOR Regine V2 11 03:06:33 F
139 727 RAGOT Francky V1 28 03:08:23 M
140 675 CHATENAY Karine V1 11 03:09:27 F
141 609 CIDALISE MONTAISE Sandra V1 12 03:09:35 TCHIMBE RAID F
142 634 LACROSSE Karyn V1 13 03:09:35 F
143 631 CAPRICE Philippe V1 29 03:09:45 M
144 723 DEHENRY Myriam V2 12 03:10:05 MANIKOU F
145 722 BOZONNET Florence V2 13 03:10:05 MANIKOU F
146 637 RAGUENAUD Stéphane SE 40 03:11:25 M
147 728 ZAMI Sonia V2 14 03:11:54 MAIRIE SPORTIVE F
148 629 SALOMON Brice SE 41 03:12:16 M
149 792 MAY Gerard V2 24 03:16:09 M
150 702 MARIE JEANNE Guetty V1 14 03:16:10 AIGLON F
151 801 GRABOWSKI Mathieu V1 30 03:16:10 M
152 685 JEAN BAPTISTE Gisčle V3 1 03:16:44 TCHIMBE RAID F
153 673 LAGRAND Nadine SE 16 03:19:14 F
154 670 SIBADO Jessica SE 17 03:19:26 F
155 786 GERMANY Jean Louis V1 31 03:19:49 MADINSCAPADE M
156 730 APPIN Willy SE 42 03:23:22 M
157 622 PERION Jacques Andre V2 25 03:23:27 SAM HORIZON 2000 M
158 665 SIMONNET Sofia SE 18 03:23:59 F
159 757 DORIZON Alexandra V1 15 03:24:47 F
160 658 BEURDELEY Marlčne SE 19 03:30:08 RUN972 F
161 614 SASSI Aimen SE 43 03:31:34 M
162 774 SURIC Sabrina V1 16 03:32:09 AMCF F
163 648 TANDAVARAYEN Emmanuel V3 11 03:32:42 M
164 780 ZECLER Aida V2 15 03:32:58 F
165 645 TANDAVARAYEN Viviane V3 2 03:33:03 F
166 667 JUFRE LOF Sylviane SE 20 03:33:52 F
167 604 LEGER Bruno V3 12 03:38:11 M
168 616 DE FRANCIOSI Philippe V2 26 03:38:11 GOLDEN STAR M
169 677 ROGES Jacqueline V2 16 03:38:23 OSONS DECOUVRIR F
170 695 DELFASSE Andre V2 27 03:38:35 OSONS DECOUVRIR M
171 807 COAT Thierry V2 28 03:39:14 M
172 699 THEODAT Christelle SE 21 03:40:45 CLUB TCHIMBÉ RAID F
173 704 SAINTE CROIX Bénédicte SE 22 03:41:20 F
174 628 DESAIVRE Cecile SE 23 03:45:13 F
175 758 BRUNO Béatrice SE 24 03:46:38 F
176 754 LEONIL DUVAL Sylvie V2 17 03:48:07 MANIKOU F
177 721 MAURICE Manuela V2 18 03:48:08 MANIKOU/TLT972 F
178 662 AUGUSTINE Philippe V2 29 03:48:10 CLUB MANIKOU M
179 611 NORDEN Alix SE 25 03:48:29 F
180 809 SAINT LOUIS AUGUSTIN Irčne V3 3 03:48:54 MANIKOU F
181 610 JEAN JOSEPH Yaelle SE 26 03:49:07 F
182 816 MENCE Emmanuelle SE 27 03:50:41 F
183 620 PLATON Patricia Denis V2 19 03:53:27 TI CHIMEN F
184 777 BAVARIN Patricia V2 20 04:02:35 F
185 756 THEGAT Yannick V2 21 04:02:43 F
186 690 LUCOT Jean Francois V3 13 04:02:56 M
187 668 BELLAY Davina SE 28 04:20:55 F
188 710 SOMVILLE Lorraine V2 22 04:20:55 MANIKOU F
189 647 SHORTIE Angélique SE 29 04:25:49 F
190 621 DESERT Yvon V2 30 04:25:49 M